sensor_id;sensor_type;location;lat;lon;timestamp;temperature;humidity
4054;DHT22;2042;47.956;9.222;2023-05-10T00:00:09;11.40;28.80
4054;DHT22;2042;47.956;9.222;2023-05-10T00:02:35;11.40;28.70
4054;DHT22;2042;47.956;9.222;2023-05-10T00:05:01;11.40;29.10
4054;DHT22;2042;47.956;9.222;2023-05-10T00:07:27;11.40;29.40
4054;DHT22;2042;47.956;9.222;2023-05-10T00:09:52;11.40;29.60
4054;DHT22;2042;47.956;9.222;2023-05-10T00:12:18;11.40;29.70
4054;DHT22;2042;47.956;9.222;2023-05-10T00:14:43;11.50;29.80
4054;DHT22;2042;47.956;9.222;2023-05-10T00:17:09;11.40;29.70
4054;DHT22;2042;47.956;9.222;2023-05-10T00:19:35;11.50;29.70
4054;DHT22;2042;47.956;9.222;2023-05-10T00:22:00;11.40;29.50
4054;DHT22;2042;47.956;9.222;2023-05-10T00:24:26;11.40;29.70
4054;DHT22;2042;47.956;9.222;2023-05-10T00:26:52;11.50;30.00
4054;DHT22;2042;47.956;9.222;2023-05-10T00:29:18;11.40;29.50
4054;DHT22;2042;47.956;9.222;2023-05-10T00:31:43;11.40;29.50
4054;DHT22;2042;47.956;9.222;2023-05-10T00:34:09;11.40;29.70
4054;DHT22;2042;47.956;9.222;2023-05-10T00:36:34;11.40;30.00
4054;DHT22;2042;47.956;9.222;2023-05-10T00:39:00;11.40;30.00
4054;DHT22;2042;47.956;9.222;2023-05-10T00:41:26;11.40;30.40
4054;DHT22;2042;47.956;9.222;2023-05-10T00:43:51;11.50;30.80
4054;DHT22;2042;47.956;9.222;2023-05-10T00:46:17;11.50;30.80
4054;DHT22;2042;47.956;9.222;2023-05-10T00:48:44;11.50;30.50
4054;DHT22;2042;47.956;9.222;2023-05-10T00:51:10;11.50;30.30
4054;DHT22;2042;47.956;9.222;2023-05-10T00:53:36;11.50;30.00
4054;DHT22;2042;47.956;9.222;2023-05-10T00:56:02;11.40;29.90
4054;DHT22;2042;47.956;9.222;2023-05-10T00:58:28;11.40;29.90
4054;DHT22;2042;47.956;9.222;2023-05-10T01:00:56;11.40;29.60
4054;DHT22;2042;47.956;9.222;2023-05-10T01:03:23;11.40;29.60
4054;DHT22;2042;47.956;9.222;2023-05-10T01:05:48;11.30;29.50
4054;DHT22;2042;47.956;9.222;2023-05-10T01:08:15;11.30;29.40
4054;DHT22;2042;47.956;9.222;2023-05-10T01:10:41;11.30;29.50
4054;DHT22;2042;47.956;9.222;2023-05-10T01:13:07;11.20;29.50
4054;DHT22;2042;47.956;9.222;2023-05-10T01:15:33;11.20;29.60
4054;DHT22;2042;47.956;9.222;2023-05-10T01:17:59;11.20;29.80
4054;DHT22;2042;47.956;9.222;2023-05-10T01:20:27;11.20;30.20
4054;DHT22;2042;47.956;9.222;2023-05-10T01:33:58;11.30;30.80
4054;DHT22;2042;47.956;9.222;2023-05-10T01:36:35;11.30;30.50
4054;DHT22;2042;47.956;9.222;2023-05-10T01:39:28;11.30;30.30
4054;DHT22;2042;47.956;9.222;2023-05-10T01:42:05;11.20;30.20
4054;DHT22;2042;47.956;9.222;2023-05-10T01:47:08;11.20;30.20
4054;DHT22;2042;47.956;9.222;2023-05-10T01:49:41;11.20;30.10
4054;DHT22;2042;47.956;9.222;2023-05-10T01:52:11;11.20;30.00
4054;DHT22;2042;47.956;9.222;2023-05-10T01:54:44;11.20;30.10
4054;DHT22;2042;47.956;9.222;2023-05-10T01:57:13;11.20;30.10
4054;DHT22;2042;47.956;9.222;2023-05-10T01:59:43;11.20;30.20
4054;DHT22;2042;47.956;9.222;2023-05-10T02:02:11;11.10;30.20
4054;DHT22;2042;47.956;9.222;2023-05-10T02:04:38;11.10;30.00
4054;DHT22;2042;47.956;9.222;2023-05-10T02:07:06;11.10;30.00
4054;DHT22;2042;47.956;9.222;2023-05-10T02:09:33;11.10;30.00
4054;DHT22;2042;47.956;9.222;2023-05-10T02:12:01;11.10;30.00
4054;DHT22;2042;47.956;9.222;2023-05-10T02:14:30;11.00;29.90
4054;DHT22;2042;47.956;9.222;2023-05-10T02:16:58;11.00;29.50
4054;DHT22;2042;47.956;9.222;2023-05-10T02:19:26;11.00;29.70
4054;DHT22;2042;47.956;9.222;2023-05-10T02:21:54;11.00;29.70
4054;DHT22;2042;47.956;9.222;2023-05-10T02:24:21;10.90;29.40
4054;DHT22;2042;47.956;9.222;2023-05-10T02:26:49;10.90;29.20
4054;DHT22;2042;47.956;9.222;2023-05-10T02:29:17;10.80;28.70
4054;DHT22;2042;47.956;9.222;2023-05-10T02:31:44;10.80;28.20
4054;DHT22;2042;47.956;9.222;2023-05-10T02:34:11;10.70;28.10
4054;DHT22;2042;47.956;9.222;2023-05-10T02:36:38;10.70;28.20
4054;DHT22;2042;47.956;9.222;2023-05-10T02:39:05;10.60;28.20
4054;DHT22;2042;47.956;9.222;2023-05-10T02:41:35;10.60;28.60
4054;DHT22;2042;47.956;9.222;2023-05-10T02:44:02;10.60;28.70
4054;DHT22;2042;47.956;9.222;2023-05-10T02:46:29;10.60;28.90
4054;DHT22;2042;47.956;9.222;2023-05-10T02:48:55;10.60;28.70
4054;DHT22;2042;47.956;9.222;2023-05-10T02:51:27;10.60;28.60
4054;DHT22;2042;47.956;9.222;2023-05-10T02:53:54;10.50;28.10
4054;DHT22;2042;47.956;9.222;2023-05-10T02:56:25;10.50;28.20
4054;DHT22;2042;47.956;9.222;2023-05-10T02:58:54;10.50;28.10
4054;DHT22;2042;47.956;9.222;2023-05-10T03:01:20;10.50;28.30
4054;DHT22;2042;47.956;9.222;2023-05-10T03:03:46;10.40;28.50
4054;DHT22;2042;47.956;9.222;2023-05-10T03:06:11;10.50;29.20
4054;DHT22;2042;47.956;9.222;2023-05-10T03:08:37;10.50;29.60
4054;DHT22;2042;47.956;9.222;2023-05-10T03:14:00;10.60;30.50
4054;DHT22;2042;47.956;9.222;2023-05-10T03:16:42;10.70;30.40
4054;DHT22;2042;47.956;9.222;2023-05-10T03:19:16;10.70;30.40
4054;DHT22;2042;47.956;9.222;2023-05-10T03:21:47;10.70;30.10
4054;DHT22;2042;47.956;9.222;2023-05-10T03:24:15;10.70;30.00
4054;DHT22;2042;47.956;9.222;2023-05-10T03:26:43;10.70;29.90
4054;DHT22;2042;47.956;9.222;2023-05-10T03:29:11;10.70;30.00
4054;DHT22;2042;47.956;9.222;2023-05-10T03:31:38;10.70;30.00
4054;DHT22;2042;47.956;9.222;2023-05-10T03:34:04;10.70;30.20
4054;DHT22;2042;47.956;9.222;2023-05-10T03:36:29;10.70;30.50
4054;DHT22;2042;47.956;9.222;2023-05-10T03:38:55;10.80;30.80
4054;DHT22;2042;47.956;9.222;2023-05-10T03:41:21;10.80;30.90
4054;DHT22;2042;47.956;9.222;2023-05-10T03:43:46;10.80;30.80
4054;DHT22;2042;47.956;9.222;2023-05-10T03:46:12;10.80;30.80
4054;DHT22;2042;47.956;9.222;2023-05-10T03:48:37;10.80;31.40
4054;DHT22;2042;47.956;9.222;2023-05-10T03:51:03;10.80;30.70
4054;DHT22;2042;47.956;9.222;2023-05-10T03:53:29;10.80;30.40
4054;DHT22;2042;47.956;9.222;2023-05-10T03:55:54;10.70;30.20
4054;DHT22;2042;47.956;9.222;2023-05-10T03:58:20;10.70;30.10
4054;DHT22;2042;47.956;9.222;2023-05-10T04:07:30;10.70;31.10
4054;DHT22;2042;47.956;9.222;2023-05-10T04:09:56;10.80;31.60
4054;DHT22;2042;47.956;9.222;2023-05-10T04:12:21;10.70;30.70
4054;DHT22;2042;47.956;9.222;2023-05-10T04:14:47;10.80;31.60
4054;DHT22;2042;47.956;9.222;2023-05-10T04:17:12;10.80;31.90
4054;DHT22;2042;47.956;9.222;2023-05-10T04:19:38;10.80;31.70
4054;DHT22;2042;47.956;9.222;2023-05-10T04:22:04;10.80;31.60
4054;DHT22;2042;47.956;9.222;2023-05-10T04:24:29;10.90;31.90
4054;DHT22;2042;47.956;9.222;2023-05-10T04:26:55;10.90;31.90
4054;DHT22;2042;47.956;9.222;2023-05-10T04:29:20;10.90;31.80
4054;DHT22;2042;47.956;9.222;2023-05-10T04:31:46;10.90;31.40
4054;DHT22;2042;47.956;9.222;2023-05-10T04:34:12;10.90;31.30
4054;DHT22;2042;47.956;9.222;2023-05-10T04:36:38;10.90;30.80
4054;DHT22;2042;47.956;9.222;2023-05-10T04:39:04;10.90;30.20
4054;DHT22;2042;47.956;9.222;2023-05-10T04:41:30;10.80;30.20
4054;DHT22;2042;47.956;9.222;2023-05-10T04:43:55;10.80;30.50
4054;DHT22;2042;47.956;9.222;2023-05-10T04:46:21;10.80;30.40
4054;DHT22;2042;47.956;9.222;2023-05-10T04:48:47;10.80;30.00
4054;DHT22;2042;47.956;9.222;2023-05-10T04:51:13;10.80;29.80
4054;DHT22;2042;47.956;9.222;2023-05-10T04:53:38;10.80;29.80
4054;DHT22;2042;47.956;9.222;2023-05-10T04:56:04;10.80;30.00
4054;DHT22;2042;47.956;9.222;2023-05-10T04:58:30;10.80;30.10
4054;DHT22;2042;47.956;9.222;2023-05-10T05:00:56;10.80;30.10
4054;DHT22;2042;47.956;9.222;2023-05-10T05:03:21;10.80;29.90
4054;DHT22;2042;47.956;9.222;2023-05-10T05:05:47;10.80;29.90
4054;DHT22;2042;47.956;9.222;2023-05-10T05:08:13;10.90;30.10
4054;DHT22;2042;47.956;9.222;2023-05-10T05:10:39;10.90;30.00
4054;DHT22;2042;47.956;9.222;2023-05-10T05:13:05;10.90;29.90
4054;DHT22;2042;47.956;9.222;2023-05-10T05:15:31;11.00;30.00
4054;DHT22;2042;47.956;9.222;2023-05-10T05:17:57;11.00;29.60
4054;DHT22;2042;47.956;9.222;2023-05-10T05:20:22;11.00;29.60
4054;DHT22;2042;47.956;9.222;2023-05-10T05:22:48;11.10;30.00
4054;DHT22;2042;47.956;9.222;2023-05-10T05:25:14;11.20;30.50
4054;DHT22;2042;47.956;9.222;2023-05-10T05:27:40;11.30;30.30
4054;DHT22;2042;47.956;9.222;2023-05-10T05:30:06;11.30;29.80
4054;DHT22;2042;47.956;9.222;2023-05-10T05:32:32;11.40;29.30
4054;DHT22;2042;47.956;9.222;2023-05-10T05:34:58;11.40;28.90
4054;DHT22;2042;47.956;9.222;2023-05-10T05:37:23;11.50;28.60
4054;DHT22;2042;47.956;9.222;2023-05-10T05:39:50;11.50;28.50
4054;DHT22;2042;47.956;9.222;2023-05-10T05:42:16;11.60;27.50
4054;DHT22;2042;47.956;9.222;2023-05-10T05:44:43;11.60;26.90
4054;DHT22;2042;47.956;9.222;2023-05-10T05:47:08;11.60;27.20
4054;DHT22;2042;47.956;9.222;2023-05-10T05:49:34;11.70;27.40
4054;DHT22;2042;47.956;9.222;2023-05-10T05:52:01;11.70;27.40
4054;DHT22;2042;47.956;9.222;2023-05-10T05:54:27;11.80;26.90
4054;DHT22;2042;47.956;9.222;2023-05-10T05:56:56;11.90;26.40
4054;DHT22;2042;47.956;9.222;2023-05-10T05:59:22;12.00;25.90
4054;DHT22;2042;47.956;9.222;2023-05-10T06:01:48;12.00;25.20
4054;DHT22;2042;47.956;9.222;2023-05-10T06:04:14;12.10;24.60
4054;DHT22;2042;47.956;9.222;2023-05-10T06:06:40;12.10;24.70
4054;DHT22;2042;47.956;9.222;2023-05-10T06:09:05;12.20;24.50
4054;DHT22;2042;47.956;9.222;2023-05-10T06:11:31;12.20;23.50
4054;DHT22;2042;47.956;9.222;2023-05-10T06:14:00;12.30;22.50
4054;DHT22;2042;47.956;9.222;2023-05-10T06:16:25;12.30;21.90
4054;DHT22;2042;47.956;9.222;2023-05-10T06:18:51;12.40;21.60
4054;DHT22;2042;47.956;9.222;2023-05-10T06:21:17;12.40;20.50
4054;DHT22;2042;47.956;9.222;2023-05-10T06:23:42;12.40;18.30
4054;DHT22;2042;47.956;9.222;2023-05-10T06:26:09;12.40;18.30
4054;DHT22;2042;47.956;9.222;2023-05-10T06:28:35;12.40;18.20
4054;DHT22;2042;47.956;9.222;2023-05-10T06:31:00;12.50;17.80
4054;DHT22;2042;47.956;9.222;2023-05-10T06:33:26;12.50;17.40
4054;DHT22;2042;47.956;9.222;2023-05-10T06:35:52;12.60;16.80
4054;DHT22;2042;47.956;9.222;2023-05-10T06:38:18;12.60;16.10
4054;DHT22;2042;47.956;9.222;2023-05-10T06:40:43;12.60;13.20
4054;DHT22;2042;47.956;9.222;2023-05-10T06:43:09;12.50;13.40
4054;DHT22;2042;47.956;9.222;2023-05-10T06:45:35;12.60;13.80
4054;DHT22;2042;47.956;9.222;2023-05-10T06:48:01;12.60;12.40
4054;DHT22;2042;47.956;9.222;2023-05-10T06:50:27;12.60;11.80
4054;DHT22;2042;47.956;9.222;2023-05-10T06:52:52;12.60;11.20
4054;DHT22;2042;47.956;9.222;2023-05-10T06:55:18;12.60;11.00
4054;DHT22;2042;47.956;9.222;2023-05-10T06:57:43;12.60;10.70
4054;DHT22;2042;47.956;9.222;2023-05-10T07:00:09;12.60;10.70
4054;DHT22;2042;47.956;9.222;2023-05-10T07:02:36;12.70;10.20
4054;DHT22;2042;47.956;9.222;2023-05-10T07:05:01;12.70;10.30
4054;DHT22;2042;47.956;9.222;2023-05-10T07:07:27;12.70;9.80
4054;DHT22;2042;47.956;9.222;2023-05-10T07:09:53;12.80;9.70
4054;DHT22;2042;47.956;9.222;2023-05-10T07:12:19;12.80;7.50
4054;DHT22;2042;47.956;9.222;2023-05-10T07:14:44;12.70;7.70
4054;DHT22;2042;47.956;9.222;2023-05-10T07:17:11;12.80;8.10
4054;DHT22;2042;47.956;9.222;2023-05-10T07:19:36;12.90;9.40
4054;DHT22;2042;47.956;9.222;2023-05-10T07:22:02;13.00;8.10
4054;DHT22;2042;47.956;9.222;2023-05-10T07:24:28;13.10;6.90
4054;DHT22;2042;47.956;9.222;2023-05-10T07:26:53;13.20;6.10
4054;DHT22;2042;47.956;9.222;2023-05-10T07:29:19;13.30;5.10
4054;DHT22;2042;47.956;9.222;2023-05-10T07:31:45;13.40;5.10
4054;DHT22;2042;47.956;9.222;2023-05-10T07:34:10;13.50;3.60
4054;DHT22;2042;47.956;9.222;2023-05-10T07:36:36;13.60;2.00
4054;DHT22;2042;47.956;9.222;2023-05-10T07:39:02;13.60;1.00
4054;DHT22;2042;47.956;9.222;2023-05-10T07:41:28;13.80;1.00
4054;DHT22;2042;47.956;9.222;2023-05-10T07:43:54;13.90;1.00
4054;DHT22;2042;47.956;9.222;2023-05-10T07:46:20;14.10;1.00
4054;DHT22;2042;47.956;9.222;2023-05-10T07:48:45;14.30;1.00
4054;DHT22;2042;47.956;9.222;2023-05-10T07:51:11;14.50;1.00
4054;DHT22;2042;47.956;9.222;2023-05-10T07:53:37;14.60;1.00
4054;DHT22;2042;47.956;9.222;2023-05-10T07:58:48;14.80;1.00
4054;DHT22;2042;47.956;9.222;2023-05-10T08:01:13;14.70;1.00
4054;DHT22;2042;47.956;9.222;2023-05-10T08:03:39;14.60;1.00
4054;DHT22;2042;47.956;9.222;2023-05-10T08:06:05;14.60;1.00
4054;DHT22;2042;47.956;9.222;2023-05-10T08:08:31;14.70;1.00
4054;DHT22;2042;47.956;9.222;2023-05-10T08:10:56;14.80;1.00
4054;DHT22;2042;47.956;9.222;2023-05-10T08:13:22;14.90;1.00
4054;DHT22;2042;47.956;9.222;2023-05-10T08:15:48;14.90;1.00
4054;DHT22;2042;47.956;9.222;2023-05-10T08:18:13;15.00;1.00
4054;DHT22;2042;47.956;9.222;2023-05-10T08:20:39;14.90;1.00
4054;DHT22;2042;47.956;9.222;2023-05-10T08:23:05;14.90;1.00
4054;DHT22;2042;47.956;9.222;2023-05-10T08:25:31;15.10;1.00
4054;DHT22;2042;47.956;9.222;2023-05-10T08:27:57;15.30;1.00
4054;DHT22;2042;47.956;9.222;2023-05-10T08:30:22;15.70;1.00
4054;DHT22;2042;47.956;9.222;2023-05-10T08:32:48;15.90;1.00
4054;DHT22;2042;47.956;9.222;2023-05-10T08:35:13;16.10;1.00
4054;DHT22;2042;47.956;9.222;2023-05-10T08:37:39;16.20;1.00
4054;DHT22;2042;47.956;9.222;2023-05-10T08:40:05;16.40;1.00
4054;DHT22;2042;47.956;9.222;2023-05-10T08:42:34;16.40;1.00
4054;DHT22;2042;47.956;9.222;2023-05-10T08:45:02;16.40;1.00
4054;DHT22;2042;47.956;9.222;2023-05-10T08:47:29;16.40;1.00
4054;DHT22;2042;47.956;9.222;2023-05-10T08:49:55;16.60;1.00
4054;DHT22;2042;47.956;9.222;2023-05-10T08:52:23;16.80;1.00
4054;DHT22;2042;47.956;9.222;2023-05-10T08:54:50;17.10;1.00
4054;DHT22;2042;47.956;9.222;2023-05-10T08:57:16;16.90;1.00
4054;DHT22;2042;47.956;9.222;2023-05-10T08:59:41;16.80;1.00
4054;DHT22;2042;47.956;9.222;2023-05-10T09:02:10;16.60;1.00
4054;DHT22;2042;47.956;9.222;2023-05-10T09:04:37;16.20;1.00
4054;DHT22;2042;47.956;9.222;2023-05-10T09:07:02;16.00;1.00
4054;DHT22;2042;47.956;9.222;2023-05-10T09:09:28;16.00;1.00
4054;DHT22;2042;47.956;9.222;2023-05-10T09:11:54;16.40;1.00
4054;DHT22;2042;47.956;9.222;2023-05-10T09:14:20;16.70;1.00
4054;DHT22;2042;47.956;9.222;2023-05-10T09:16:48;17.00;1.00
4054;DHT22;2042;47.956;9.222;2023-05-10T09:19:14;17.00;1.00
4054;DHT22;2042;47.956;9.222;2023-05-10T09:21:40;16.70;1.00
4054;DHT22;2042;47.956;9.222;2023-05-10T09:24:07;16.50;1.00
4054;DHT22;2042;47.956;9.222;2023-05-10T09:26:33;16.40;1.00
4054;DHT22;2042;47.956;9.222;2023-05-10T09:28:59;16.50;1.00
4054;DHT22;2042;47.956;9.222;2023-05-10T09:31:50;16.60;1.00
4054;DHT22;2042;47.956;9.222;2023-05-10T09:34:30;16.60;1.00
4054;DHT22;2042;47.956;9.222;2023-05-10T09:36:58;16.60;1.00
4054;DHT22;2042;47.956;9.222;2023-05-10T09:39:36;16.30;1.00
4054;DHT22;2042;47.956;9.222;2023-05-10T09:42:09;15.20;1.00
4054;DHT22;2042;47.956;9.222;2023-05-10T09:44:36;13.90;1.00
4054;DHT22;2042;47.956;9.222;2023-05-10T09:47:03;12.80;1.00
4054;DHT22;2042;47.956;9.222;2023-05-10T09:49:29;12.10;1.00
4054;DHT22;2042;47.956;9.222;2023-05-10T09:52:03;11.80;1.00
4054;DHT22;2042;47.956;9.222;2023-05-10T09:54:29;11.80;1.00
4054;DHT22;2042;47.956;9.222;2023-05-10T09:56:55;11.90;1.00
4054;DHT22;2042;47.956;9.222;2023-05-10T09:59:21;12.00;1.00
4054;DHT22;2042;47.956;9.222;2023-05-10T10:01:50;12.10;1.00
4054;DHT22;2042;47.956;9.222;2023-05-10T10:04:16;12.10;1.00
4054;DHT22;2042;47.956;9.222;2023-05-10T10:06:42;11.90;1.00
4054;DHT22;2042;47.956;9.222;2023-05-10T10:09:08;11.80;1.00
4054;DHT22;2042;47.956;9.222;2023-05-10T10:11:36;11.80;1.00
4054;DHT22;2042;47.956;9.222;2023-05-10T10:14:02;11.80;1.00
4054;DHT22;2042;47.956;9.222;2023-05-10T10:16:31;11.90;1.00
4054;DHT22;2042;47.956;9.222;2023-05-10T10:18:57;11.90;1.00
4054;DHT22;2042;47.956;9.222;2023-05-10T10:21:23;11.90;1.00
4054;DHT22;2042;47.956;9.222;2023-05-10T10:23:49;11.80;1.00
4054;DHT22;2042;47.956;9.222;2023-05-10T10:26:17;11.80;1.00
4054;DHT22;2042;47.956;9.222;2023-05-10T10:31:32;11.70;1.00
4054;DHT22;2042;47.956;9.222;2023-05-10T10:34:05;11.70;1.00
4054;DHT22;2042;47.956;9.222;2023-05-10T10:36:45;11.70;1.00
4054;DHT22;2042;47.956;9.222;2023-05-10T10:39:11;11.70;1.00
4054;DHT22;2042;47.956;9.222;2023-05-10T10:41:38;11.80;1.00
4054;DHT22;2042;47.956;9.222;2023-05-10T10:47:03;11.80;1.00
4054;DHT22;2042;47.956;9.222;2023-05-10T10:52:45;11.60;1.00
4054;DHT22;2042;47.956;9.222;2023-05-10T10:55:12;11.50;1.00
4054;DHT22;2042;47.956;9.222;2023-05-10T11:00:27;11.20;1.00
4054;DHT22;2042;47.956;9.222;2023-05-10T11:03:07;11.10;1.70
4054;DHT22;2042;47.956;9.222;2023-05-10T11:05:47;11.10;4.00
4054;DHT22;2042;47.956;9.222;2023-05-10T11:08:27;11.10;4.80
4054;DHT22;2042;47.956;9.222;2023-05-10T11:11:03;11.10;5.30
4054;DHT22;2042;47.956;9.222;2023-05-10T11:15:55;11.20;8.20
4054;DHT22;2042;47.956;9.222;2023-05-10T11:18:31;11.20;8.90
4054;DHT22;2042;47.956;9.222;2023-05-10T11:21:01;11.30;8.80
4054;DHT22;2042;47.956;9.222;2023-05-10T11:26:08;11.50;9.40
4054;DHT22;2042;47.956;9.222;2023-05-10T11:31:08;12.20;13.90
4054;DHT22;2042;47.956;9.222;2023-05-10T11:33:50;12.80;12.80
4054;DHT22;2042;47.956;9.222;2023-05-10T11:36:21;13.50;10.60
4054;DHT22;2042;47.956;9.222;2023-05-10T11:38:47;14.10;7.40
4054;DHT22;2042;47.956;9.222;2023-05-10T11:41:14;14.80;1.70
4054;DHT22;2042;47.956;9.222;2023-05-10T11:43:41;15.30;1.00
4054;DHT22;2042;47.956;9.222;2023-05-10T11:46:08;15.60;1.00
4054;DHT22;2042;47.956;9.222;2023-05-10T11:48:35;15.80;1.00
4054;DHT22;2042;47.956;9.222;2023-05-10T11:51:02;15.90;1.00
4054;DHT22;2042;47.956;9.222;2023-05-10T11:53:31;16.10;1.00
4054;DHT22;2042;47.956;9.222;2023-05-10T11:56:03;16.40;1.00
4054;DHT22;2042;47.956;9.222;2023-05-10T11:58:30;17.00;1.00
4054;DHT22;2042;47.956;9.222;2023-05-10T12:00:56;17.30;1.00
4054;DHT22;2042;47.956;9.222;2023-05-10T12:03:21;17.70;1.00
4054;DHT22;2042;47.956;9.222;2023-05-10T12:05:47;18.20;1.00
4054;DHT22;2042;47.956;9.222;2023-05-10T12:08:14;18.60;1.00
4054;DHT22;2042;47.956;9.222;2023-05-10T12:10:40;18.30;1.00
4054;DHT22;2042;47.956;9.222;2023-05-10T12:13:11;17.80;1.00
4054;DHT22;2042;47.956;9.222;2023-05-10T12:15:38;17.30;1.00
4054;DHT22;2042;47.956;9.222;2023-05-10T12:18:04;17.00;1.00
4054;DHT22;2042;47.956;9.222;2023-05-10T12:20:30;16.70;1.00
4054;DHT22;2042;47.956;9.222;2023-05-10T12:22:58;16.50;1.00
4054;DHT22;2042;47.956;9.222;2023-05-10T12:25:36;16.40;1.00
4054;DHT22;2042;47.956;9.222;2023-05-10T12:28:07;16.20;1.00
4054;DHT22;2042;47.956;9.222;2023-05-10T12:30:34;15.70;1.00
4054;DHT22;2042;47.956;9.222;2023-05-10T12:33:11;15.50;1.00
4054;DHT22;2042;47.956;9.222;2023-05-10T12:35:48;15.60;1.00
4054;DHT22;2042;47.956;9.222;2023-05-10T12:40:52;16.30;1.00
4054;DHT22;2042;47.956;9.222;2023-05-10T12:43:17;16.10;1.00
4054;DHT22;2042;47.956;9.222;2023-05-10T12:45:43;15.50;1.00
4054;DHT22;2042;47.956;9.222;2023-05-10T12:48:13;15.30;1.00
4054;DHT22;2042;47.956;9.222;2023-05-10T12:50:38;15.40;1.00
4054;DHT22;2042;47.956;9.222;2023-05-10T12:53:04;15.80;1.00
4054;DHT22;2042;47.956;9.222;2023-05-10T12:55:30;16.40;1.00
4054;DHT22;2042;47.956;9.222;2023-05-10T12:57:55;16.90;1.00
4054;DHT22;2042;47.956;9.222;2023-05-10T13:00:21;17.40;1.00
4054;DHT22;2042;47.956;9.222;2023-05-10T13:02:46;18.00;1.00
4054;DHT22;2042;47.956;9.222;2023-05-10T13:05:12;18.50;1.00
4054;DHT22;2042;47.956;9.222;2023-05-10T13:07:38;18.90;1.00
4054;DHT22;2042;47.956;9.222;2023-05-10T13:10:05;19.40;1.00
4054;DHT22;2042;47.956;9.222;2023-05-10T13:12:31;19.70;1.00
4054;DHT22;2042;47.956;9.222;2023-05-10T13:14:57;20.10;1.00
4054;DHT22;2042;47.956;9.222;2023-05-10T13:17:23;20.30;1.00
4054;DHT22;2042;47.956;9.222;2023-05-10T13:19:48;20.50;1.00
4054;DHT22;2042;47.956;9.222;2023-05-10T13:22:14;20.70;1.00
4054;DHT22;2042;47.956;9.222;2023-05-10T13:24:40;20.90;1.00
4054;DHT22;2042;47.956;9.222;2023-05-10T13:27:05;21.10;1.00
4054;DHT22;2042;47.956;9.222;2023-05-10T13:29:31;21.20;1.00
4054;DHT22;2042;47.956;9.222;2023-05-10T13:31:57;21.40;1.00
4054;DHT22;2042;47.956;9.222;2023-05-10T13:34:23;21.50;1.00
4054;DHT22;2042;47.956;9.222;2023-05-10T13:36:49;21.50;1.00
4054;DHT22;2042;47.956;9.222;2023-05-10T13:39:15;21.50;1.00
4054;DHT22;2042;47.956;9.222;2023-05-10T13:41:41;21.60;1.00
4054;DHT22;2042;47.956;9.222;2023-05-10T13:44:06;21.60;1.00
4054;DHT22;2042;47.956;9.222;2023-05-10T13:46:32;21.70;1.00
4054;DHT22;2042;47.956;9.222;2023-05-10T13:48:58;21.70;1.00
4054;DHT22;2042;47.956;9.222;2023-05-10T13:51:25;21.70;1.00
4054;DHT22;2042;47.956;9.222;2023-05-10T13:53:50;21.40;1.00
4054;DHT22;2042;47.956;9.222;2023-05-10T13:56:17;20.80;1.00
4054;DHT22;2042;47.956;9.222;2023-05-10T13:58:42;20.10;1.00
4054;DHT22;2042;47.956;9.222;2023-05-10T14:01:08;19.60;1.00
4054;DHT22;2042;47.956;9.222;2023-05-10T14:03:34;19.00;1.00
4054;DHT22;2042;47.956;9.222;2023-05-10T14:05:59;18.60;1.00
4054;DHT22;2042;47.956;9.222;2023-05-10T14:08:25;18.20;1.00
4054;DHT22;2042;47.956;9.222;2023-05-10T14:10:52;17.90;1.00
4054;DHT22;2042;47.956;9.222;2023-05-10T14:13:18;17.90;1.00
4054;DHT22;2042;47.956;9.222;2023-05-10T14:15:43;18.10;1.00
4054;DHT22;2042;47.956;9.222;2023-05-10T14:18:09;18.30;1.00
4054;DHT22;2042;47.956;9.222;2023-05-10T14:20:35;18.70;1.00
4054;DHT22;2042;47.956;9.222;2023-05-10T14:23:00;19.10;1.00
4054;DHT22;2042;47.956;9.222;2023-05-10T14:25:26;19.40;1.00
4054;DHT22;2042;47.956;9.222;2023-05-10T14:27:52;19.60;1.00
4054;DHT22;2042;47.956;9.222;2023-05-10T14:30:20;19.60;1.00
4054;DHT22;2042;47.956;9.222;2023-05-10T14:32:45;19.50;1.00
4054;DHT22;2042;47.956;9.222;2023-05-10T14:35:11;19.50;1.00
4054;DHT22;2042;47.956;9.222;2023-05-10T14:37:38;19.50;1.00
4054;DHT22;2042;47.956;9.222;2023-05-10T14:40:05;19.40;1.00
4054;DHT22;2042;47.956;9.222;2023-05-10T14:42:31;19.40;1.00
4054;DHT22;2042;47.956;9.222;2023-05-10T14:44:57;19.30;1.00
4054;DHT22;2042;47.956;9.222;2023-05-10T14:47:23;19.30;1.00
4054;DHT22;2042;47.956;9.222;2023-05-10T14:49:49;19.20;1.00
4054;DHT22;2042;47.956;9.222;2023-05-10T14:52:14;19.10;1.00
4054;DHT22;2042;47.956;9.222;2023-05-10T14:54:40;18.90;1.00
4054;DHT22;2042;47.956;9.222;2023-05-10T14:57:06;18.90;1.00
4054;DHT22;2042;47.956;9.222;2023-05-10T14:59:32;19.00;1.00
4054;DHT22;2042;47.956;9.222;2023-05-10T15:01:58;19.00;1.00
4054;DHT22;2042;47.956;9.222;2023-05-10T15:04:24;18.80;1.00
4054;DHT22;2042;47.956;9.222;2023-05-10T15:06:49;18.70;1.00
4054;DHT22;2042;47.956;9.222;2023-05-10T15:09:15;18.70;1.00
4054;DHT22;2042;47.956;9.222;2023-05-10T15:11:41;18.70;1.00
4054;DHT22;2042;47.956;9.222;2023-05-10T15:14:07;18.60;1.00
4054;DHT22;2042;47.956;9.222;2023-05-10T15:16:33;18.60;1.00
4054;DHT22;2042;47.956;9.222;2023-05-10T15:18:58;18.50;1.00
4054;DHT22;2042;47.956;9.222;2023-05-10T15:21:24;18.50;1.00
4054;DHT22;2042;47.956;9.222;2023-05-10T15:23:49;18.60;1.00
4054;DHT22;2042;47.956;9.222;2023-05-10T15:26:15;18.60;1.00
4054;DHT22;2042;47.956;9.222;2023-05-10T15:28:41;18.50;1.00
4054;DHT22;2042;47.956;9.222;2023-05-10T15:31:06;18.50;1.00
4054;DHT22;2042;47.956;9.222;2023-05-10T15:33:32;18.30;1.00
4054;DHT22;2042;47.956;9.222;2023-05-10T15:35:58;18.00;1.00
4054;DHT22;2042;47.956;9.222;2023-05-10T15:38:23;17.80;1.00
4054;DHT22;2042;47.956;9.222;2023-05-10T15:40:49;17.60;1.00
4054;DHT22;2042;47.956;9.222;2023-05-10T15:43:14;17.10;1.00
4054;DHT22;2042;47.956;9.222;2023-05-10T15:45:40;16.10;1.00
4054;DHT22;2042;47.956;9.222;2023-05-10T15:48:06;15.00;1.00
4054;DHT22;2042;47.956;9.222;2023-05-10T15:50:32;13.90;1.00
4054;DHT22;2042;47.956;9.222;2023-05-10T15:52:57;13.10;1.00
4054;DHT22;2042;47.956;9.222;2023-05-10T15:55:24;12.50;1.00
4054;DHT22;2042;47.956;9.222;2023-05-10T15:57:50;12.10;1.00
4054;DHT22;2042;47.956;9.222;2023-05-10T16:00:16;11.70;1.00
4054;DHT22;2042;47.956;9.222;2023-05-10T16:02:42;11.50;1.00
4054;DHT22;2042;47.956;9.222;2023-05-10T16:05:08;11.50;1.00
4054;DHT22;2042;47.956;9.222;2023-05-10T16:07:34;11.40;1.00
4054;DHT22;2042;47.956;9.222;2023-05-10T16:10:00;11.40;1.00
4054;DHT22;2042;47.956;9.222;2023-05-10T16:12:29;11.40;1.00
4054;DHT22;2042;47.956;9.222;2023-05-10T16:14:55;11.40;1.00
4054;DHT22;2042;47.956;9.222;2023-05-10T16:17:21;11.50;1.00
4054;DHT22;2042;47.956;9.222;2023-05-10T16:19:47;11.50;1.00
4054;DHT22;2042;47.956;9.222;2023-05-10T16:22:13;11.60;1.00
4054;DHT22;2042;47.956;9.222;2023-05-10T16:24:39;11.50;1.00
4054;DHT22;2042;47.956;9.222;2023-05-10T16:27:04;11.50;1.00
4054;DHT22;2042;47.956;9.222;2023-05-10T16:29:30;11.60;1.00
4054;DHT22;2042;47.956;9.222;2023-05-10T16:31:56;11.70;1.00
4054;DHT22;2042;47.956;9.222;2023-05-10T16:34:22;11.70;1.00
4054;DHT22;2042;47.956;9.222;2023-05-10T16:36:48;11.80;1.00
4054;DHT22;2042;47.956;9.222;2023-05-10T16:39:14;11.90;1.00
4054;DHT22;2042;47.956;9.222;2023-05-10T16:41:41;12.00;1.00
4054;DHT22;2042;47.956;9.222;2023-05-10T16:44:06;12.00;1.00
4054;DHT22;2042;47.956;9.222;2023-05-10T16:46:32;12.10;1.00
4054;DHT22;2042;47.956;9.222;2023-05-10T16:48:58;12.20;1.00
4054;DHT22;2042;47.956;9.222;2023-05-10T16:51:25;12.30;1.00
4054;DHT22;2042;47.956;9.222;2023-05-10T16:53:51;12.40;1.00
4054;DHT22;2042;47.956;9.222;2023-05-10T16:56:17;12.40;1.00